Paris, TN (38242)

9:39 PM CDT on September 02, 2014 (GMT -0500)
Highway 69 N | Change Station
CLOSE
Current Station
Personal Weather Station
Location: Paris, TN
Elevation: 495 ft
Nearby Weather Stations

Elev 495 ft 36.31 °N, 88.34 °W | Updated 11 minutes ago

Rain
Rain
75.5 °F
Feels Like 74 °F
N
0.0
Wind Variable Wind from NNE
Gusts 0.0 mph

Today
High -- | Low -- °F
--% Chance of Precip.
Yesterday
High -- | Low -- °F
Precip. -- in
6:25 AM 7:19 PM
First Quarter, 57% visible
Pressure 30.01 in
Visibility 10.0 miles
Clouds Clear
Heat Index 74 °F
Dew Point 75 °F
Humidity 98%
Rainfall 0.20 in
Snow Depth Not available.
UV 0.0 out of 12
Pollen 10.00 out of 12
Air Quality Not available.
Flu Activity Not available.
METAR KCEY 030215Z AUTO 14004KT 10SM CLR 23/22 A3001 RMK AO1

More Conditions Fewer Conditions

Pressure 30.01 in
Visibility 10.0 miles
Clouds Clear
Heat Index 74 °F
Dew Point 75 °F
Humidity 98%
Rainfall 0.20 in
Snow Depth Not available.
UV 0.0 out of 12
Pollen 10.00 out of 12
Air Quality Not available.
Flu Activity Not available.
METAR KCEY 030215Z AUTO 14004KT 10SM CLR 23/22 A3001 RMK AO1

More Conditions Fewer Conditions

10-Day Weather Forecast

Almanac

Astronomy

Sep. 02, 2014 Rise Set
Actual Time 6:25 AM CDT 7:19 PM CDT
Civil Twilight 5:59 AM CDT 7:45 PM CDT
Nautical Twilight 5:28 AM CDT 8:16 PM CDT
Astronomical Twilight 4:56 AM CDT 8:48 PM CDT
Moon 1:57 PM CDT (9/2) No Moon Set
Length of Visible Light 13h 46m
Length of Day
12h 54m
Tomorrow will be 2m 13s shorter.
First Quarter, 57% of the Moon is Illuminated
Today
First Quarter
Sep 8
Full
Sep 15
Last Quarter
Sep 24
New
Oct 1
First Quarter

Today's Extremes

State Highs State Lows

Community

WunderPhotos

Upload Photos

1,749,845 photos uploaded!

Nearby

Snow Depth

Station Depth Elevation
No new snow has been reported.

Earthquake Activity

City Distance Mag. Time & Date
Tiptonville, Tennessee 67 miles 2.9 11:19 PM CDT
2014-08-31
Minimum magnitude displayed is 2.5.

Coastal Water Temperatures

Place Temperature
No Stations Reporting

Nearby Weather Stations